createdAt,value
2017-10-24T05:29:43.401Z,2
2017-10-24T05:35:49.299Z,5
2017-10-24T05:38:52.297Z,8
2017-10-24T05:40:54.220Z,10
2017-10-24T05:42:26.263Z,13
2017-10-24T05:43:27.257Z,15
2017-10-24T05:44:28.259Z,17
2017-10-24T05:45:29.267Z,20
2017-10-24T05:46:30.204Z,22
2017-10-24T05:47:00.205Z,25
2017-10-24T05:48:01.211Z,28
2017-10-24T05:48:32.152Z,30
2017-10-24T05:49:02.174Z,32
2017-10-24T05:49:33.196Z,35
2017-10-24T05:50:03.142Z,37
2017-10-24T05:50:34.170Z,40
2017-10-24T05:51:04.180Z,43
2017-10-24T05:51:35.176Z,45
2017-10-24T05:52:05.100Z,47
2017-10-24T05:52:36.204Z,50
2017-10-24T05:53:06.106Z,52
2017-10-24T05:53:37.124Z,55
2017-10-24T05:54:07.162Z,58
2017-10-24T05:54:38.162Z,62
2017-10-24T05:55:08.105Z,65
2017-10-24T05:55:39.080Z,67
2017-10-24T05:56:09.062Z,70
2017-10-24T05:56:40.098Z,73
2017-10-24T05:57:10.063Z,77
2017-10-24T05:57:41.086Z,80
2017-10-24T05:58:11.035Z,83
2017-10-24T05:58:42.041Z,85
2017-10-24T05:59:12.059Z,88
2017-10-24T05:59:43.043Z,92
2017-10-24T06:00:13.086Z,95
2017-10-24T06:00:44.058Z,100
2017-10-24T06:01:14.022Z,105
2017-10-24T06:01:45.014Z,107
2017-10-24T06:02:15.010Z,112
2017-10-24T06:02:46.034Z,118
2017-10-24T06:03:16.062Z,125
2017-10-24T06:03:46.986Z,130
2017-10-24T06:04:16.994Z,135
2017-10-24T06:04:48.041Z,142
2017-10-24T06:05:17.961Z,150
2017-10-24T06:05:48.998Z,155
2017-10-24T06:06:18.951Z,160
2017-10-24T06:06:49.959Z,165
2017-10-24T06:07:19.940Z,170
2017-10-24T06:07:50.945Z,178
2017-10-24T06:08:20.944Z,182
2017-10-24T06:08:52.021Z,187
2017-10-24T06:09:21.934Z,193
2017-10-24T06:09:52.932Z,197
2017-10-24T06:10:22.918Z,205
2017-10-24T06:10:53.914Z,212
2017-10-24T06:11:23.895Z,220
2017-10-24T06:11:54.936Z,230
2017-10-24T06:12:24.889Z,238
2017-10-24T06:12:55.916Z,250
2017-10-24T06:13:25.873Z,260
2017-10-24T06:13:56.896Z,270
2017-10-24T06:14:26.873Z,280
2017-10-24T06:14:57.976Z,293
2017-10-24T06:15:27.908Z,305
2017-10-24T06:15:58.873Z,320
2017-10-24T06:16:28.864Z,328
2017-10-24T06:16:59.852Z,335
2017-10-24T06:17:29.840Z,343
2017-10-24T06:18:00.907Z,350
2017-10-24T06:18:30.866Z,355
2017-10-24T06:19:01.858Z,362
2017-10-24T06:19:31.827Z,370
2017-10-24T06:20:02.934Z,377
2017-10-24T06:20:32.795Z,390
2017-10-24T06:21:03.871Z,405
2017-10-24T06:21:33.861Z,420
2017-10-24T06:22:04.814Z,435
2017-10-24T06:22:34.855Z,450
2017-10-24T06:23:05.793Z,463
2017-10-24T06:23:35.783Z,475
2017-10-24T06:24:06.831Z,485
2017-10-24T06:24:36.796Z,495
2017-10-24T06:25:07.816Z,508
2017-10-24T06:25:37.782Z,523
2017-10-24T06:26:08.762Z,535
2017-10-24T06:26:38.739Z,550
2017-10-24T06:27:09.769Z,565
2017-10-24T06:27:39.722Z,578
2017-10-24T06:28:10.730Z,592
2017-10-24T06:28:40.707Z,605
2017-10-24T06:29:11.719Z,620
2017-10-24T06:29:41.707Z,640
2017-10-24T06:30:12.722Z,653
2017-10-24T06:30:42.690Z,667
2017-10-24T06:31:13.742Z,677
2017-10-24T06:31:43.744Z,690
2017-10-24T06:32:14.702Z,703
2017-10-24T06:32:44.680Z,718
2017-10-24T06:33:15.712Z,733
2017-10-24T06:33:45.708Z,750
2017-10-24T06:34:16.704Z,767
2017-10-24T06:34:46.741Z,785
2017-10-24T06:35:17.665Z,800
2017-10-24T06:35:47.715Z,817
2017-10-24T06:36:18.700Z,838
2017-10-24T06:36:48.694Z,857
2017-10-24T06:37:19.629Z,875
2017-10-24T06:37:49.641Z,895
2017-10-24T06:38:20.632Z,913
2017-10-24T06:38:50.612Z,930
2017-10-24T06:39:21.673Z,947
2017-10-24T06:39:51.695Z,962
2017-10-24T06:40:22.597Z,983
2017-10-24T06:40:52.588Z,1000
2017-10-24T06:41:23.649Z,1020
2017-10-24T06:41:53.611Z,1040
2017-10-24T06:42:24.621Z,1060
2017-10-24T06:42:54.559Z,1078
2017-10-24T06:43:25.560Z,1095
2017-10-24T06:43:55.558Z,1110
2017-10-24T06:44:26.619Z,1125
2017-10-24T06:44:56.618Z,1142
2017-10-24T06:45:27.606Z,1165
2017-10-24T06:45:57.607Z,1190
2017-10-24T06:46:28.584Z,1220
2017-10-24T06:46:58.530Z,1250
2017-10-24T06:47:29.547Z,1275
2017-10-24T06:47:59.514Z,1295
2017-10-24T06:48:30.570Z,1312
2017-10-24T06:49:00.706Z,1328
2017-10-24T06:49:31.559Z,1342
2017-10-24T06:50:01.511Z,1358
2017-10-24T06:50:32.495Z,1375
2017-10-24T06:51:02.534Z,1393
2017-10-24T06:51:33.479Z,1410
2017-10-24T06:52:03.527Z,1425
2017-10-24T06:52:34.536Z,1438
2017-10-24T06:53:05.962Z,1447
2017-10-24T06:53:35.524Z,1457
2017-10-24T06:54:05.484Z,1465
2017-10-24T06:54:36.531Z,1475
2017-10-24T06:55:06.570Z,1480
2017-10-24T06:55:37.484Z,1490
2017-10-24T06:56:07.491Z,1500
2017-10-24T06:56:38.463Z,1513
2017-10-24T06:57:08.469Z,1528
2017-10-24T06:57:39.474Z,1545
2017-10-24T06:58:09.446Z,1558
2017-10-24T06:58:40.466Z,1565
2017-10-24T06:59:10.403Z,1573
2017-10-24T06:59:41.475Z,1580
2017-10-24T07:00:12.941Z,1585
2017-10-24T07:00:42.445Z,1592
2017-10-24T07:01:12.442Z,1600
2017-10-24T07:01:43.432Z,1610
2017-10-24T07:02:13.369Z,1620
2017-10-24T07:02:44.382Z,1630
2017-10-24T07:03:14.351Z,1640
2017-10-24T07:03:45.403Z,1652
2017-10-24T07:04:15.377Z,1663
2017-10-24T07:04:46.359Z,1667
2017-10-24T07:05:16.386Z,1678
2017-10-24T07:05:47.410Z,1682
2017-10-24T07:06:17.366Z,1690
2017-10-24T07:06:48.364Z,1693
2017-10-24T07:07:18.346Z,1700
2017-10-24T07:07:49.379Z,1708
2017-10-24T07:08:19.358Z,1717
2017-10-24T07:08:50.355Z,1725
2017-10-24T07:09:20.298Z,1733
2017-10-24T07:09:51.363Z,1740
2017-10-24T07:10:21.385Z,1745
2017-10-24T07:10:52.314Z,1750
2017-10-24T07:11:22.336Z,1757
2017-10-24T07:11:53.349Z,1760
2017-10-24T07:12:23.301Z,1768
2017-10-24T07:12:54.307Z,1775
2017-10-24T07:13:24.314Z,1785
2017-10-24T07:13:55.302Z,1795
2017-10-24T07:14:25.291Z,1805
2017-10-24T07:14:56.301Z,1815
2017-10-24T07:15:26.300Z,1820
2017-10-24T07:15:57.273Z,1823
2017-10-24T07:16:27.263Z,1825
2017-10-24T07:16:58.254Z,1828
2017-10-24T07:17:59.213Z,1830
2017-10-24T07:18:29.246Z,1832
2017-10-24T07:19:00.578Z,1835
2017-10-24T07:19:30.195Z,1840
2017-10-24T07:20:01.191Z,1850
2017-10-24T07:20:31.260Z,1855
2017-10-24T07:21:02.178Z,1865
2017-10-24T07:21:32.167Z,1873
2017-10-24T07:22:03.242Z,1883
2017-10-24T07:22:33.162Z,1892
2017-10-24T07:23:04.217Z,1903
2017-10-24T07:23:34.177Z,1913
2017-10-24T07:24:05.150Z,1920
2017-10-24T07:24:35.138Z,1930
2017-10-24T07:25:06.215Z,1937
2017-10-24T07:25:36.191Z,1948
2017-10-24T07:26:07.156Z,1958
2017-10-24T07:26:36.239Z,1970
2017-10-24T07:27:07.282Z,1980
2017-10-24T07:27:37.307Z,1990
2017-10-24T07:28:08.310Z,2000
2017-10-24T07:28:38.296Z,2012
2017-10-24T07:29:09.335Z,2027
2017-10-24T07:29:39.411Z,2048
2017-10-24T07:30:10.298Z,2070
2017-10-24T07:30:40.389Z,2092
2017-10-24T07:31:11.387Z,2117
2017-10-24T07:31:41.380Z,2145
2017-10-24T07:32:12.389Z,2177
2017-10-24T07:32:42.414Z,2215
2017-10-24T07:33:13.430Z,2252
2017-10-24T07:33:43.456Z,2287
2017-10-24T07:34:14.478Z,2323
2017-10-24T07:34:44.439Z,2353
2017-10-24T07:35:15.459Z,2380
2017-10-24T07:35:45.571Z,2405
2017-10-24T07:36:15.563Z,2435
2017-10-24T07:36:45.570Z,2465
2017-10-24T07:37:15.607Z,2492
2017-10-24T07:37:45.648Z,2518
2017-10-24T07:38:15.653Z,2540
2017-10-24T07:38:45.687Z,2560
2017-10-24T07:39:15.740Z,2572
2017-10-24T07:39:45.775Z,2585
2017-10-24T07:40:15.802Z,2603
2017-10-24T07:40:45.863Z,2620
2017-10-24T07:41:15.876Z,2640
2017-10-24T07:41:45.897Z,2660
2017-10-24T07:42:15.925Z,2680
2017-10-24T07:42:45.935Z,2695
2017-10-24T07:43:15.999Z,2717
2017-10-24T07:43:46.044Z,2732
2017-10-24T07:44:15.997Z,2747
2017-10-24T07:44:46.088Z,2762
2017-10-24T07:45:16.060Z,2780
2017-10-24T07:45:46.207Z,2795
2017-10-24T07:46:16.157Z,2813
2017-10-24T07:46:46.191Z,2815
2017-10-24T07:47:16.251Z,2807
2017-10-24T07:47:46.198Z,2810
2017-10-24T07:48:16.311Z,2827
2017-10-24T07:49:16.347Z,2855
2017-10-24T07:49:46.340Z,2865
2017-10-24T07:50:16.444Z,2855
2017-10-24T07:50:46.437Z,2822
2017-10-24T07:51:16.469Z,2810
2017-10-24T07:51:46.456Z,2800
2017-10-24T07:52:16.493Z,2758
2017-10-24T07:52:46.541Z,2720
2017-10-24T07:53:16.578Z,2698
2017-10-24T07:53:46.571Z,2668
2017-10-24T07:54:16.624Z,2670
2017-10-24T07:54:46.657Z,2662
2017-10-24T07:55:16.676Z,2672
2017-10-24T07:55:46.759Z,2690
2017-10-24T07:56:16.738Z,2675
2017-10-24T07:56:46.754Z,2683
2017-10-24T07:57:16.843Z,2677
2017-10-24T07:57:46.815Z,2683
2017-10-24T07:58:16.855Z,2657
2017-10-24T07:58:46.870Z,2655
2017-10-24T07:59:16.922Z,2635
2017-10-24T07:59:46.991Z,2633
2017-10-24T08:00:47.031Z,2625
2017-10-24T08:01:17.067Z,2617
2017-10-24T08:01:47.083Z,2610
2017-10-24T08:02:17.107Z,2603
2017-10-24T08:02:47.142Z,2600
2017-10-24T08:03:17.208Z,2603
2017-10-24T08:03:47.234Z,2617
2017-10-24T08:04:17.260Z,2640
2017-10-24T08:04:47.316Z,2662
2017-10-24T08:05:17.292Z,2677
2017-10-24T08:05:47.428Z,2715
2017-10-24T08:06:17.411Z,2747
2017-10-24T08:06:47.428Z,2780
2017-10-24T08:07:17.443Z,2820
2017-10-24T08:07:47.465Z,2858
2017-10-24T08:08:17.505Z,2893
2017-10-24T08:08:47.552Z,2935
2017-10-24T08:09:17.570Z,2992
2017-10-24T08:09:47.561Z,3047
2017-10-24T08:10:17.657Z,3103
2017-10-24T08:10:47.638Z,3140
2017-10-24T08:11:17.664Z,3182
2017-10-24T08:11:47.680Z,3223
2017-10-24T08:12:17.716Z,3270
2017-10-24T08:12:47.735Z,3332
2017-10-24T08:13:17.783Z,3395
2017-10-24T08:13:47.814Z,3448
2017-10-24T08:14:17.841Z,3508
2017-10-24T08:14:48.103Z,3568
2017-10-24T08:15:17.912Z,3637
2017-10-24T08:15:48.215Z,3695
2017-10-24T08:16:17.969Z,3805
2017-10-24T08:16:47.985Z,3865
2017-10-24T08:17:18.039Z,3878
2017-10-24T08:17:48.050Z,3910
2017-10-24T08:18:18.138Z,4005
2017-10-24T08:18:48.127Z,4050
2017-10-24T08:19:18.238Z,4123
2017-10-24T08:19:48.162Z,4183
2017-10-24T08:20:18.274Z,4230
2017-10-24T08:20:48.252Z,4208
2017-10-24T08:21:18.332Z,4235
2017-10-24T08:21:48.291Z,4288
2017-10-24T08:22:18.418Z,4367
2017-10-24T08:22:48.407Z,4463
2017-10-24T08:23:18.444Z,4502
2017-10-24T08:23:48.457Z,4567
2017-10-24T08:24:18.518Z,4597
2017-10-24T08:24:48.487Z,4712
2017-10-24T08:25:18.593Z,4885
2017-10-24T08:25:48.606Z,4907
2017-10-24T08:26:18.634Z,4927
2017-10-24T08:26:48.598Z,4960
2017-10-24T08:27:18.641Z,4950
2017-10-24T08:27:48.720Z,4930
2017-10-24T08:28:18.706Z,4890
2017-10-24T08:28:48.777Z,4880
2017-10-24T08:29:18.819Z,4835
2017-10-24T08:29:49.083Z,4890
2017-10-24T08:30:18.886Z,4945
2017-10-24T08:30:48.926Z,5008
2017-10-24T08:31:18.972Z,4890
2017-10-24T08:31:49.092Z,4663
2017-10-24T08:32:19.035Z,4535
2017-10-24T08:32:49.016Z,4360
2017-10-24T08:33:49.079Z,4285
2017-10-24T08:34:19.144Z,4037
2017-10-24T08:34:49.151Z,3952
2017-10-24T08:36:34.802Z,3833
2017-10-24T08:36:49.263Z,3793
2017-10-24T08:37:19.306Z,3782
2017-10-24T08:37:49.318Z,3703
2017-10-24T08:38:19.392Z,3637
2017-10-24T08:38:49.384Z,3598
2017-10-24T08:39:19.449Z,3572
2017-10-24T08:39:49.439Z,3553
2017-10-24T08:40:19.498Z,3535
2017-10-24T08:40:49.504Z,3497
2017-10-24T08:41:19.546Z,3472
2017-10-24T08:41:49.553Z,3450
2017-10-24T08:42:19.573Z,3430
2017-10-24T08:42:49.597Z,3427
2017-10-24T08:43:19.639Z,3407
2017-10-24T08:43:49.642Z,3400
2017-10-24T08:44:19.704Z,3380
2017-10-24T08:44:49.836Z,3358
2017-10-24T08:45:19.769Z,3332
2017-10-24T08:45:49.785Z,3300
2017-10-24T08:46:19.835Z,3285
2017-10-24T08:46:49.851Z,3265
2017-10-24T08:47:19.875Z,3250
2017-10-24T08:47:49.891Z,3240
2017-10-24T08:48:49.963Z,3260
2017-10-24T08:49:20.011Z,3293
2017-10-24T08:49:50.015Z,3332
2017-10-24T08:50:20.068Z,3365
2017-10-24T08:50:50.079Z,3407
2017-10-24T08:51:20.124Z,3440
2017-10-24T08:51:50.179Z,3463
2017-10-24T08:52:20.269Z,3478
2017-10-24T08:52:50.246Z,3493
2017-10-24T08:53:20.250Z,3523
2017-10-24T08:53:50.312Z,3570
2017-10-24T08:54:20.320Z,3615
2017-10-24T08:54:50.367Z,3675
2017-10-24T08:55:20.432Z,3730
2017-10-24T08:55:50.398Z,3790
2017-10-24T08:56:20.463Z,3847
2017-10-24T08:56:50.521Z,3907
2017-10-24T08:57:20.538Z,3973
2017-10-24T08:57:50.530Z,3992
2017-10-24T08:58:20.622Z,4040
2017-10-24T08:58:50.582Z,4078
2017-10-24T08:59:20.612Z,4142
2017-10-24T08:59:52.131Z,4210
2017-10-24T09:00:20.716Z,4315
2017-10-24T09:00:50.702Z,4415
2017-10-24T09:01:20.737Z,4510
2017-10-24T09:01:50.792Z,4562
2017-10-24T09:02:20.814Z,4603
2017-10-24T09:02:50.825Z,4605
2017-10-24T09:03:20.881Z,4570
2017-10-24T09:03:50.890Z,4530
2017-10-24T09:04:20.918Z,4455
2017-10-24T09:04:50.937Z,4378
2017-10-24T09:05:21.007Z,4298
2017-10-24T09:05:51.016Z,4275
2017-10-24T09:06:21.114Z,4283
2017-10-24T09:06:51.110Z,4275
2017-10-24T09:07:21.118Z,4250
2017-10-24T09:07:51.122Z,4195
2017-10-24T09:08:21.227Z,4135
2017-10-24T09:08:51.191Z,4063
2017-10-24T09:09:21.275Z,4005
2017-10-24T09:09:51.248Z,3962
2017-10-24T09:10:21.307Z,3900
2017-10-24T09:10:51.354Z,3817
2017-10-24T09:11:21.455Z,3752
2017-10-24T09:11:51.396Z,3718
2017-10-24T09:12:21.423Z,3675
2017-10-24T09:12:51.461Z,3617
2017-10-24T09:13:21.548Z,3550
2017-10-24T09:13:51.534Z,3475
2017-10-24T09:14:21.596Z,3398
2017-10-24T09:14:51.621Z,3340
2017-10-24T09:15:21.677Z,3285
2017-10-24T09:15:51.666Z,3238
2017-10-24T09:16:21.759Z,3180
2017-10-24T09:16:51.731Z,3112
2017-10-24T09:17:21.808Z,3043
2017-10-24T09:17:51.791Z,2972
2017-10-24T09:18:21.850Z,2920
2017-10-24T09:18:51.863Z,2880
2017-10-24T09:19:21.843Z,2837
2017-10-24T09:19:51.916Z,2792
2017-10-24T09:20:21.967Z,2745
2017-10-24T09:20:51.970Z,2710
2017-10-24T09:21:22.056Z,2672
2017-10-24T09:21:51.985Z,2650
2017-10-24T09:22:22.107Z,2633
2017-10-24T09:22:52.084Z,2630
2017-10-24T09:23:52.149Z,2633
2017-10-24T09:24:22.171Z,2650
2017-10-24T09:24:52.195Z,2675
2017-10-24T09:25:22.289Z,2693
2017-10-24T09:25:52.268Z,2715
2017-10-24T09:26:22.388Z,2735
2017-10-24T09:26:52.347Z,2760
2017-10-24T09:27:22.338Z,2795
2017-10-24T09:27:52.405Z,2835
2017-10-24T09:28:22.410Z,2880
2017-10-24T09:28:52.469Z,2908
2017-10-24T09:29:22.511Z,2897
2017-10-24T09:29:52.557Z,2863
2017-10-24T09:30:22.558Z,2822
2017-10-24T09:30:52.599Z,2770
2017-10-24T09:31:22.666Z,2690
2017-10-24T09:31:52.642Z,2557
2017-10-24T09:32:22.681Z,2440
2017-10-24T09:32:52.680Z,2357
2017-10-24T09:33:22.728Z,2290
2017-10-24T09:33:52.739Z,2240
2017-10-24T09:34:22.785Z,2182
2017-10-24T09:34:52.781Z,2117
2017-10-24T09:35:22.834Z,2060
2017-10-24T09:35:52.845Z,2017
2017-10-24T09:36:22.944Z,1990
2017-10-24T09:36:52.912Z,1970
2017-10-24T09:37:22.949Z,1940
2017-10-24T09:37:52.979Z,1925
2017-10-24T09:38:23.052Z,1920
2017-10-24T09:39:23.077Z,1910
2017-10-24T09:39:53.106Z,1888
2017-10-24T09:40:23.174Z,1868
2017-10-24T09:40:53.150Z,1850
2017-10-24T09:41:23.222Z,1840
2017-10-24T09:41:53.318Z,1823
2017-10-24T09:42:23.313Z,1787
2017-10-24T09:42:53.332Z,1757
2017-10-24T09:43:23.375Z,1733
2017-10-24T09:43:53.856Z,1712
2017-10-24T09:44:23.446Z,1710
2017-10-24T09:44:53.695Z,1742
2017-10-24T09:45:23.455Z,1790
2017-10-24T09:45:53.493Z,1825
2017-10-24T09:46:23.569Z,1830
2017-10-24T09:47:23.600Z,1865
2017-10-24T09:47:53.645Z,1952
2017-10-24T09:48:23.655Z,2113
2017-10-24T09:48:53.645Z,2333
2017-10-24T09:49:23.693Z,2512
2017-10-24T09:49:53.728Z,2693
2017-10-24T09:50:23.809Z,2938
2017-10-24T09:50:53.797Z,3322
2017-10-24T09:51:23.820Z,3680
2017-10-24T09:51:53.839Z,3898
2017-10-24T09:52:23.898Z,3962
2017-10-24T09:52:53.897Z,4022
2017-10-24T09:53:23.935Z,4250
2017-10-24T09:53:54.010Z,4505
2017-10-24T09:54:23.996Z,4650
2017-10-24T09:54:54.052Z,4750
2017-10-24T09:55:24.056Z,4775
2017-10-24T09:55:54.097Z,4665
2017-10-24T09:56:24.116Z,4427
2017-10-24T09:56:54.235Z,4190
2017-10-24T09:57:24.253Z,3868
2017-10-24T09:57:54.202Z,3503
2017-10-24T09:58:24.279Z,3195
2017-10-24T09:58:54.305Z,3028
2017-10-24T09:59:24.316Z,2978
2017-10-24T09:59:54.434Z,2972
2017-10-24T10:00:24.448Z,2980
2017-10-24T10:00:54.406Z,3025
2017-10-24T10:01:24.434Z,3150
2017-10-24T10:01:54.515Z,3320
2017-10-24T10:02:24.597Z,3485
2017-10-24T10:02:54.577Z,3625
2017-10-24T10:03:24.619Z,3725
2017-10-24T10:03:54.647Z,3785
2017-10-24T10:04:24.660Z,3763
2017-10-24T10:04:54.676Z,3617
2017-10-24T10:05:24.721Z,3420
2017-10-24T10:05:54.750Z,3233
2017-10-24T10:06:24.803Z,3005
2017-10-24T10:06:54.783Z,2798
2017-10-24T10:07:24.925Z,2668
2017-10-24T10:07:54.871Z,2653
2017-10-24T10:08:24.932Z,2650
2017-10-24T10:08:54.939Z,2672
2017-10-24T10:09:24.958Z,2702
2017-10-24T10:09:54.934Z,2810
2017-10-24T10:10:25.018Z,2950
2017-10-24T10:10:55.039Z,3002
2017-10-24T10:11:25.111Z,3015
2017-10-24T10:11:55.131Z,3043
2017-10-24T10:12:25.194Z,3068
2017-10-24T10:12:55.178Z,3090
2017-10-24T10:13:25.209Z,3107
2017-10-24T10:13:55.184Z,3152
2017-10-24T10:14:25.286Z,3230
2017-10-24T10:14:55.364Z,3280
2017-10-24T10:15:25.316Z,3268
2017-10-24T10:15:55.350Z,3208
2017-10-24T10:16:25.445Z,3133
2017-10-24T10:16:55.397Z,3020
2017-10-24T10:17:25.484Z,2920
2017-10-24T10:17:55.460Z,2893
2017-10-24T10:18:25.538Z,2945
2017-10-24T10:18:55.507Z,3025
2017-10-24T10:19:25.550Z,3088
2017-10-24T10:19:55.616Z,3105
2017-10-24T10:20:25.674Z,3165
2017-10-24T10:20:55.649Z,3278
2017-10-24T10:21:25.665Z,3430
2017-10-24T10:21:55.684Z,3527
2017-10-24T10:22:25.745Z,3592
2017-10-24T10:22:55.789Z,3617
2017-10-24T10:23:25.785Z,3580
2017-10-24T10:23:55.805Z,3575
2017-10-24T10:24:25.862Z,3550
2017-10-24T10:24:55.869Z,3493
2017-10-24T10:25:25.916Z,3475
2017-10-24T10:25:55.928Z,3495
2017-10-24T10:26:25.983Z,3563
2017-10-24T10:26:55.993Z,3570
2017-10-24T10:27:26.036Z,3530
2017-10-24T10:27:56.103Z,3565
2017-10-24T10:28:26.106Z,3677
2017-10-24T10:28:56.132Z,3737
2017-10-24T10:29:26.208Z,3725
2017-10-24T10:29:56.244Z,3653
2017-10-24T10:30:26.302Z,3602
2017-10-24T10:30:56.248Z,3660
2017-10-24T10:31:26.313Z,3720
2017-10-24T10:31:56.358Z,3722
2017-10-24T10:32:26.397Z,3740
2017-10-24T10:32:56.437Z,3765
2017-10-24T10:33:26.410Z,3690
2017-10-24T10:33:56.475Z,3598
2017-10-24T10:34:26.518Z,3510
2017-10-24T10:34:56.513Z,3420
2017-10-24T10:35:26.573Z,3353
2017-10-24T10:35:56.558Z,3307
2017-10-24T10:36:26.610Z,3283
2017-10-24T10:36:56.611Z,3265
2017-10-24T10:37:26.668Z,3215
2017-10-24T10:37:56.723Z,3125
2017-10-24T10:38:26.722Z,3008
2017-10-24T10:38:56.728Z,2848
2017-10-24T10:39:26.854Z,2702
2017-10-24T10:39:56.799Z,2645
2017-10-24T10:40:26.831Z,2630
2017-10-24T10:40:56.850Z,2635
2017-10-24T10:41:26.893Z,2642
2017-10-24T10:41:56.902Z,2672
2017-10-24T10:42:26.953Z,2750
2017-10-24T10:42:57.035Z,2870
2017-10-24T10:43:27.031Z,3000
2017-10-24T10:43:57.042Z,3103
2017-10-24T10:44:27.077Z,3080
2017-10-24T10:44:57.134Z,3137
2017-10-24T10:45:27.206Z,3343
2017-10-24T10:45:57.180Z,3388
2017-10-24T10:46:27.218Z,3302
2017-10-24T10:46:57.229Z,3248
2017-10-24T10:47:27.278Z,3242
2017-10-24T10:47:57.348Z,3302
2017-10-24T10:48:27.368Z,3403
2017-10-24T10:48:57.335Z,3508
2017-10-24T10:49:27.429Z,3602
2017-10-24T10:49:57.404Z,3725
2017-10-24T10:50:27.478Z,3833
2017-10-24T10:50:57.524Z,3980
2017-10-24T10:51:27.567Z,4145
2017-10-24T10:51:57.608Z,4352
2017-10-24T10:52:27.611Z,4560
2017-10-24T10:52:57.689Z,4723
2017-10-24T10:53:27.671Z,4815
2017-10-24T10:53:57.728Z,4852
2017-10-24T10:54:27.743Z,4828
2017-10-24T10:54:57.767Z,4723
2017-10-24T10:55:27.831Z,4567
2017-10-24T10:55:57.785Z,4300
2017-10-24T10:56:27.863Z,4045
2017-10-24T10:56:57.881Z,3872
2017-10-24T10:57:27.950Z,3705
2017-10-24T10:57:57.952Z,3598
2017-10-24T10:58:58.026Z,3650
2017-10-24T10:59:27.999Z,3715
2017-10-24T10:59:58.080Z,3923
2017-10-24T11:00:28.141Z,4290
2017-10-24T11:00:58.114Z,4060
2017-10-24T11:01:28.189Z,3820
2017-10-24T11:01:58.183Z,4163
2017-10-24T11:02:28.234Z,4500
2017-10-24T11:02:58.358Z,4885
2017-10-24T11:03:28.257Z,5240
2017-10-24T11:03:58.310Z,5512
2017-10-24T11:04:28.359Z,5837
2017-10-24T11:04:58.378Z,6148
2017-10-24T11:05:28.440Z,6350
2017-10-24T11:05:58.456Z,6555
2017-10-24T11:06:28.536Z,6517
2017-10-24T11:06:58.479Z,6420
2017-10-24T11:07:28.519Z,6223
2017-10-24T11:07:58.577Z,6060
2017-10-24T11:08:28.559Z,5955
2017-10-24T11:08:58.644Z,5902
2017-10-24T11:09:28.633Z,5783
2017-10-24T11:09:58.631Z,5670
2017-10-24T11:10:28.696Z,5570
2017-10-24T11:10:58.694Z,5363
2017-10-24T11:11:28.744Z,5035
2017-10-24T11:11:58.794Z,4892
2017-10-24T11:12:28.810Z,4933
2017-10-24T11:12:58.844Z,5023
2017-10-24T11:13:28.859Z,4960
2017-10-24T11:13:58.894Z,4620
2017-10-24T11:14:28.930Z,4258
2017-10-24T11:14:58.976Z,3930
2017-10-24T11:15:29.060Z,3538
2017-10-24T11:15:59.003Z,3260
2017-10-24T11:16:29.050Z,3097
2017-10-24T11:16:59.072Z,3010
2017-10-24T11:17:29.107Z,2890
2017-10-24T11:17:59.250Z,2737
2017-10-24T11:18:29.505Z,2512
2017-10-24T11:18:59.218Z,2218
2017-10-24T11:19:29.282Z,1925
2017-10-24T11:19:59.335Z,1663
2017-10-24T11:20:29.338Z,1455
2017-10-24T11:20:59.309Z,1335
2017-10-24T11:21:29.370Z,1260
2017-10-24T11:21:59.416Z,1200
2017-10-24T11:22:29.458Z,1153
2017-10-24T11:22:59.499Z,1097
2017-10-24T11:23:29.574Z,1082
2017-10-24T11:23:59.497Z,1100
2017-10-24T11:24:29.603Z,1130
2017-10-24T11:24:59.571Z,1153
2017-10-24T11:25:29.615Z,1120
2017-10-24T11:25:59.683Z,1105
2017-10-24T11:26:29.686Z,1140
2017-10-24T11:26:59.704Z,1200
2017-10-24T11:27:29.723Z,1262
2017-10-24T11:27:59.770Z,1352
2017-10-24T11:28:29.794Z,1440
2017-10-24T11:28:59.800Z,1493
2017-10-24T11:29:29.890Z,1485
2017-10-24T11:30:29.924Z,1483
2017-10-24T11:30:59.996Z,1453
2017-10-24T11:31:29.969Z,1427
2017-10-24T11:31:59.997Z,1390
2017-10-24T11:32:30.036Z,1295
2017-10-24T11:33:00.060Z,1187
2017-10-24T11:33:30.093Z,1142
2017-10-24T11:34:00.169Z,1170
2017-10-24T11:34:30.156Z,1225
2017-10-24T11:35:00.185Z,1300
2017-10-24T11:35:30.271Z,1358
2017-10-24T11:36:00.620Z,1412
2017-10-24T11:36:30.341Z,1463
2017-10-24T11:37:00.779Z,1453
2017-10-24T11:37:30.377Z,1425
2017-10-24T11:38:00.496Z,1415
2017-10-24T11:38:30.516Z,1352
2017-10-24T11:39:00.604Z,1277
2017-10-24T11:39:30.535Z,1198
2017-10-24T11:40:00.865Z,1120
2017-10-24T11:40:30.570Z,1065
2017-10-24T11:41:00.687Z,1018
2017-10-24T11:41:30.627Z,950
2017-10-24T11:42:00.747Z,910
2017-10-24T11:42:30.694Z,923
2017-10-24T11:43:00.662Z,965
2017-10-24T11:43:30.832Z,980
2017-10-24T11:44:00.726Z,965
2017-10-24T11:44:30.790Z,960
2017-10-24T11:45:30.931Z,967
2017-10-24T11:46:00.852Z,943
2017-10-24T11:46:30.978Z,875
2017-10-24T11:47:00.971Z,808
2017-10-24T11:47:31.012Z,773
2017-10-24T11:48:00.971Z,737
2017-10-24T11:48:31.134Z,720
2017-10-24T11:49:01.349Z,695
2017-10-24T11:49:31.174Z,703
2017-10-24T11:50:01.098Z,728
2017-10-24T11:50:31.189Z,787
2017-10-24T11:51:01.149Z,870
2017-10-24T11:51:31.260Z,1000
2017-10-24T11:52:01.300Z,1150
2017-10-24T11:52:31.323Z,1292
2017-10-24T11:53:01.282Z,1403
2017-10-24T11:53:31.459Z,1483
2017-10-24T11:54:01.347Z,1508
2017-10-24T11:54:31.412Z,1502
2017-10-24T11:55:01.427Z,1483
2017-10-24T11:55:31.513Z,1472
2017-10-24T11:56:01.518Z,1420
2017-10-24T11:56:31.530Z,1400
2017-10-24T11:57:31.578Z,1410
2017-10-24T11:58:01.586Z,1430
2017-10-24T11:58:31.694Z,1447
2017-10-24T11:59:01.646Z,1493
2017-10-24T11:59:31.701Z,1577
2017-10-24T12:00:01.739Z,1673
2017-10-24T12:00:31.825Z,1802
2017-10-24T12:01:01.827Z,1937
2017-10-24T12:01:31.849Z,2042
2017-10-24T12:02:01.836Z,2108
2017-10-24T12:02:31.894Z,2162
2017-10-24T12:03:01.906Z,2195
2017-10-24T12:03:32.008Z,2260
2017-10-24T12:04:01.959Z,2287
2017-10-24T12:04:32.004Z,2265
2017-10-24T12:05:02.016Z,2275
2017-10-24T12:05:32.074Z,2237
2017-10-24T12:06:02.083Z,2173
2017-10-24T12:06:32.120Z,2143
2017-10-24T12:07:02.149Z,2077
2017-10-24T12:07:32.197Z,2012
2017-10-24T12:08:02.366Z,1937
2017-10-24T12:08:32.276Z,1845
2017-10-24T12:09:02.259Z,1723
2017-10-24T12:09:32.324Z,1657
2017-10-24T12:10:02.325Z,1663
2017-10-24T12:10:32.369Z,1695
2017-10-24T12:11:02.404Z,1700
2017-10-24T12:11:32.489Z,1667
2017-10-24T12:12:02.478Z,1630
2017-10-24T12:13:02.569Z,1627
2017-10-24T12:13:32.673Z,1652
2017-10-24T12:14:02.616Z,1760
2017-10-24T12:14:32.618Z,1903
2017-10-24T12:15:02.675Z,2063
2017-10-24T12:15:32.751Z,2220
2017-10-24T12:16:02.696Z,2295
2017-10-24T12:16:32.743Z,2353
2017-10-24T12:17:02.785Z,2425
2017-10-24T12:17:32.807Z,2443
2017-10-24T12:18:02.817Z,2402
2017-10-24T12:18:32.875Z,2335
2017-10-24T12:19:02.885Z,2295
2017-10-24T12:19:32.926Z,2252
2017-10-24T12:20:02.943Z,2235
2017-10-24T12:20:32.987Z,2215
2017-10-24T12:21:03.000Z,2182
2017-10-24T12:21:33.054Z,2222
2017-10-24T12:22:03.063Z,2318
2017-10-24T12:22:33.111Z,2362
2017-10-24T12:23:03.176Z,2360
2017-10-24T12:23:33.251Z,2357
2017-10-24T12:24:03.226Z,2402
2017-10-24T12:24:33.292Z,2480
2017-10-24T12:25:03.307Z,2518
2017-10-24T12:25:33.297Z,2512
2017-10-24T12:26:03.382Z,2470
2017-10-24T12:26:33.422Z,2460
2017-10-24T12:27:03.366Z,2445
2017-10-24T12:27:33.428Z,2395
2017-10-24T12:28:03.474Z,2345
2017-10-24T12:28:33.587Z,2325
2017-10-24T12:29:03.541Z,2312
2017-10-24T12:29:33.597Z,2305
2017-10-24T12:30:03.638Z,2293
2017-10-24T12:30:33.741Z,2273
2017-10-24T12:31:03.680Z,2210
2017-10-24T12:31:33.719Z,2100
2017-10-24T12:32:03.753Z,2070
2017-10-24T12:32:33.734Z,1985
2017-10-24T12:33:03.819Z,1865
2017-10-24T12:33:33.874Z,1753
2017-10-24T12:34:03.867Z,1652
2017-10-24T12:34:33.948Z,1580